sensor_id;sensor_type;location;lat;lon;timestamp;temperature;humidity
14061;DHT22;7105;43.616;1.434;2022-10-16T00:01:35;18.10;99.90
14061;DHT22;7105;43.616;1.434;2022-10-16T00:04:01;18.10;99.90
14061;DHT22;7105;43.616;1.434;2022-10-16T00:06:28;18.10;99.90
14061;DHT22;7105;43.616;1.434;2022-10-16T00:08:54;18.20;99.90
14061;DHT22;7105;43.616;1.434;2022-10-16T00:13:47;18.20;99.90
14061;DHT22;7105;43.616;1.434;2022-10-16T00:16:13;18.10;99.90
14061;DHT22;7105;43.616;1.434;2022-10-16T00:18:40;18.10;99.90
14061;DHT22;7105;43.616;1.434;2022-10-16T00:21:09;18.20;99.90
14061;DHT22;7105;43.616;1.434;2022-10-16T00:23:35;18.10;99.90
14061;DHT22;7105;43.616;1.434;2022-10-16T00:26:06;18.10;99.90
14061;DHT22;7105;43.616;1.434;2022-10-16T00:28:32;18.10;99.90
14061;DHT22;7105;43.616;1.434;2022-10-16T00:30:58;18.10;99.90
14061;DHT22;7105;43.616;1.434;2022-10-16T00:33:24;18.10;99.90
14061;DHT22;7105;43.616;1.434;2022-10-16T00:35:49;18.10;99.90
14061;DHT22;7105;43.616;1.434;2022-10-16T00:38:16;18.10;99.90
14061;DHT22;7105;43.616;1.434;2022-10-16T00:40:42;18.10;99.90
14061;DHT22;7105;43.616;1.434;2022-10-16T00:43:41;18.10;99.90
14061;DHT22;7105;43.616;1.434;2022-10-16T00:48:40;18.10;99.90
14061;DHT22;7105;43.616;1.434;2022-10-16T00:51:07;18.00;99.90
14061;DHT22;7105;43.616;1.434;2022-10-16T00:53:33;18.00;99.90
14061;DHT22;7105;43.616;1.434;2022-10-16T00:55:59;18.00;99.90
14061;DHT22;7105;43.616;1.434;2022-10-16T00:58:25;18.00;99.90
14061;DHT22;7105;43.616;1.434;2022-10-16T01:00:51;18.00;99.90
14061;DHT22;7105;43.616;1.434;2022-10-16T01:03:29;18.00;99.90
14061;DHT22;7105;43.616;1.434;2022-10-16T01:11:45;18.20;99.90
14061;DHT22;7105;43.616;1.434;2022-10-16T01:16:58;18.20;99.90
14061;DHT22;7105;43.616;1.434;2022-10-16T01:21:58;18.10;99.90
14061;DHT22;7105;43.616;1.434;2022-10-16T01:24:38;18.10;99.90
14061;DHT22;7105;43.616;1.434;2022-10-16T01:30:04;18.10;99.90
14061;DHT22;7105;43.616;1.434;2022-10-16T01:32:42;18.20;99.90
14061;DHT22;7105;43.616;1.434;2022-10-16T01:35:45;18.20;99.90
14061;DHT22;7105;43.616;1.434;2022-10-16T01:40:44;18.20;99.90
14061;DHT22;7105;43.616;1.434;2022-10-16T01:43:24;18.20;99.90
14061;DHT22;7105;43.616;1.434;2022-10-16T01:45:52;18.30;99.90
14061;DHT22;7105;43.616;1.434;2022-10-16T01:48:19;18.30;99.90
14061;DHT22;7105;43.616;1.434;2022-10-16T01:51:05;18.30;99.90
14061;DHT22;7105;43.616;1.434;2022-10-16T01:53:32;18.30;99.90
14061;DHT22;7105;43.616;1.434;2022-10-16T01:55:59;18.30;99.90
14061;DHT22;7105;43.616;1.434;2022-10-16T01:58:27;18.30;99.90
14061;DHT22;7105;43.616;1.434;2022-10-16T02:00:54;18.30;99.90
14061;DHT22;7105;43.616;1.434;2022-10-16T02:03:20;18.40;99.90
14061;DHT22;7105;43.616;1.434;2022-10-16T02:05:56;18.30;99.90
14061;DHT22;7105;43.616;1.434;2022-10-16T02:08:26;18.40;99.90
14061;DHT22;7105;43.616;1.434;2022-10-16T02:10:55;18.40;99.90
14061;DHT22;7105;43.616;1.434;2022-10-16T02:13:25;18.40;99.90
14061;DHT22;7105;43.616;1.434;2022-10-16T02:15:52;18.40;99.90
14061;DHT22;7105;43.616;1.434;2022-10-16T02:18:18;18.40;99.90
14061;DHT22;7105;43.616;1.434;2022-10-16T02:21:00;18.40;99.90
14061;DHT22;7105;43.616;1.434;2022-10-16T02:23:57;18.40;99.90
14061;DHT22;7105;43.616;1.434;2022-10-16T02:29:17;18.40;99.90
14061;DHT22;7105;43.616;1.434;2022-10-16T02:31:46;18.30;99.90
14061;DHT22;7105;43.616;1.434;2022-10-16T02:34:14;18.30;99.90
14061;DHT22;7105;43.616;1.434;2022-10-16T02:36:42;18.30;99.90
14061;DHT22;7105;43.616;1.434;2022-10-16T02:39:08;18.30;99.90
14061;DHT22;7105;43.616;1.434;2022-10-16T02:41:35;18.40;99.90
14061;DHT22;7105;43.616;1.434;2022-10-16T02:44:00;18.40;99.90
14061;DHT22;7105;43.616;1.434;2022-10-16T02:46:26;18.40;99.90
14061;DHT22;7105;43.616;1.434;2022-10-16T02:48:52;18.40;99.90
14061;DHT22;7105;43.616;1.434;2022-10-16T02:51:17;18.40;99.90
14061;DHT22;7105;43.616;1.434;2022-10-16T02:53:43;18.40;99.90
14061;DHT22;7105;43.616;1.434;2022-10-16T02:56:09;18.40;99.90
14061;DHT22;7105;43.616;1.434;2022-10-16T02:58:35;18.40;99.90
14061;DHT22;7105;43.616;1.434;2022-10-16T03:01:00;18.40;99.90
14061;DHT22;7105;43.616;1.434;2022-10-16T03:03:26;18.40;99.90
14061;DHT22;7105;43.616;1.434;2022-10-16T03:05:52;18.40;99.90
14061;DHT22;7105;43.616;1.434;2022-10-16T03:08:17;18.30;99.90
14061;DHT22;7105;43.616;1.434;2022-10-16T03:10:49;18.40;99.90
14061;DHT22;7105;43.616;1.434;2022-10-16T03:13:14;18.40;99.90
14061;DHT22;7105;43.616;1.434;2022-10-16T03:15:40;18.40;99.90
14061;DHT22;7105;43.616;1.434;2022-10-16T03:18:06;18.40;99.90
14061;DHT22;7105;43.616;1.434;2022-10-16T03:20:32;18.30;99.90
14061;DHT22;7105;43.616;1.434;2022-10-16T03:22:58;18.30;99.90
14061;DHT22;7105;43.616;1.434;2022-10-16T03:25:23;18.40;99.90
14061;DHT22;7105;43.616;1.434;2022-10-16T03:27:49;18.40;99.90
14061;DHT22;7105;43.616;1.434;2022-10-16T03:30:15;18.30;99.90
14061;DHT22;7105;43.616;1.434;2022-10-16T03:32:42;18.40;99.90
14061;DHT22;7105;43.616;1.434;2022-10-16T03:35:08;18.40;99.90
14061;DHT22;7105;43.616;1.434;2022-10-16T03:37:34;18.30;99.90
14061;DHT22;7105;43.616;1.434;2022-10-16T03:40:00;18.40;99.90
14061;DHT22;7105;43.616;1.434;2022-10-16T03:42:26;18.40;99.90
14061;DHT22;7105;43.616;1.434;2022-10-16T03:44:51;18.40;99.90
14061;DHT22;7105;43.616;1.434;2022-10-16T03:47:17;18.40;99.90
14061;DHT22;7105;43.616;1.434;2022-10-16T03:49:47;18.40;99.90
14061;DHT22;7105;43.616;1.434;2022-10-16T03:52:13;18.40;99.90
14061;DHT22;7105;43.616;1.434;2022-10-16T03:54:38;18.40;99.90
14061;DHT22;7105;43.616;1.434;2022-10-16T03:57:04;18.40;99.90
14061;DHT22;7105;43.616;1.434;2022-10-16T03:59:30;18.50;99.90
14061;DHT22;7105;43.616;1.434;2022-10-16T04:01:55;18.50;99.90
14061;DHT22;7105;43.616;1.434;2022-10-16T04:04:21;18.50;99.90
14061;DHT22;7105;43.616;1.434;2022-10-16T04:06:47;18.50;99.90
14061;DHT22;7105;43.616;1.434;2022-10-16T04:09:12;18.50;99.90
14061;DHT22;7105;43.616;1.434;2022-10-16T04:11:38;18.50;99.90
14061;DHT22;7105;43.616;1.434;2022-10-16T04:14:04;18.60;99.90
14061;DHT22;7105;43.616;1.434;2022-10-16T04:16:30;18.60;99.90
14061;DHT22;7105;43.616;1.434;2022-10-16T04:18:55;18.60;99.90
14061;DHT22;7105;43.616;1.434;2022-10-16T04:21:21;18.60;99.90
14061;DHT22;7105;43.616;1.434;2022-10-16T04:23:47;18.60;99.90
14061;DHT22;7105;43.616;1.434;2022-10-16T04:26:14;18.60;99.90
14061;DHT22;7105;43.616;1.434;2022-10-16T04:28:39;18.60;99.90
14061;DHT22;7105;43.616;1.434;2022-10-16T04:31:06;18.60;99.90
14061;DHT22;7105;43.616;1.434;2022-10-16T04:33:32;18.60;99.90
14061;DHT22;7105;43.616;1.434;2022-10-16T04:36:00;18.60;99.90
14061;DHT22;7105;43.616;1.434;2022-10-16T04:38:26;18.60;99.90
14061;DHT22;7105;43.616;1.434;2022-10-16T04:40:52;18.60;99.90
14061;DHT22;7105;43.616;1.434;2022-10-16T04:43:17;18.60;99.90
14061;DHT22;7105;43.616;1.434;2022-10-16T04:45:43;18.70;99.90
14061;DHT22;7105;43.616;1.434;2022-10-16T04:48:09;18.70;99.90
14061;DHT22;7105;43.616;1.434;2022-10-16T04:50:35;18.70;99.90
14061;DHT22;7105;43.616;1.434;2022-10-16T04:53:00;18.70;99.90
14061;DHT22;7105;43.616;1.434;2022-10-16T04:55:26;18.70;99.90
14061;DHT22;7105;43.616;1.434;2022-10-16T04:57:52;18.70;99.90
14061;DHT22;7105;43.616;1.434;2022-10-16T05:00:17;18.80;99.90
14061;DHT22;7105;43.616;1.434;2022-10-16T05:02:43;18.70;99.90
14061;DHT22;7105;43.616;1.434;2022-10-16T05:05:09;18.80;99.90
14061;DHT22;7105;43.616;1.434;2022-10-16T05:07:34;18.70;99.90
14061;DHT22;7105;43.616;1.434;2022-10-16T05:10:00;18.70;99.90
14061;DHT22;7105;43.616;1.434;2022-10-16T05:12:26;18.70;99.90
14061;DHT22;7105;43.616;1.434;2022-10-16T05:14:52;18.70;99.90
14061;DHT22;7105;43.616;1.434;2022-10-16T05:17:17;18.80;99.90
14061;DHT22;7105;43.616;1.434;2022-10-16T05:19:43;18.80;99.90
14061;DHT22;7105;43.616;1.434;2022-10-16T05:22:09;18.80;99.90
14061;DHT22;7105;43.616;1.434;2022-10-16T05:24:34;18.80;99.90
14061;DHT22;7105;43.616;1.434;2022-10-16T05:27:00;18.90;99.90
14061;DHT22;7105;43.616;1.434;2022-10-16T05:29:25;18.80;99.90
14061;DHT22;7105;43.616;1.434;2022-10-16T05:31:52;18.90;99.90
14061;DHT22;7105;43.616;1.434;2022-10-16T05:34:19;18.80;99.90
14061;DHT22;7105;43.616;1.434;2022-10-16T05:36:44;18.80;99.90
14061;DHT22;7105;43.616;1.434;2022-10-16T05:39:11;18.80;99.90
14061;DHT22;7105;43.616;1.434;2022-10-16T05:41:36;18.80;99.90
14061;DHT22;7105;43.616;1.434;2022-10-16T05:44:05;18.80;99.90
14061;DHT22;7105;43.616;1.434;2022-10-16T05:46:32;18.90;99.90
14061;DHT22;7105;43.616;1.434;2022-10-16T05:48:57;18.80;99.90
14061;DHT22;7105;43.616;1.434;2022-10-16T05:51:23;18.90;99.90
14061;DHT22;7105;43.616;1.434;2022-10-16T05:53:50;18.90;99.90
14061;DHT22;7105;43.616;1.434;2022-10-16T05:56:17;18.80;99.90
14061;DHT22;7105;43.616;1.434;2022-10-16T05:58:42;18.90;99.90
14061;DHT22;7105;43.616;1.434;2022-10-16T06:01:15;18.90;99.90
14061;DHT22;7105;43.616;1.434;2022-10-16T06:03:41;18.90;99.90
14061;DHT22;7105;43.616;1.434;2022-10-16T06:06:15;18.90;99.90
14061;DHT22;7105;43.616;1.434;2022-10-16T06:08:42;19.00;99.90
14061;DHT22;7105;43.616;1.434;2022-10-16T06:11:10;19.00;99.90
14061;DHT22;7105;43.616;1.434;2022-10-16T06:13:37;19.00;99.90
14061;DHT22;7105;43.616;1.434;2022-10-16T06:16:03;19.00;99.90
14061;DHT22;7105;43.616;1.434;2022-10-16T06:18:30;18.90;99.90
14061;DHT22;7105;43.616;1.434;2022-10-16T06:20:56;19.00;99.90
14061;DHT22;7105;43.616;1.434;2022-10-16T06:23:22;19.00;99.90
14061;DHT22;7105;43.616;1.434;2022-10-16T06:25:48;19.00;99.90
14061;DHT22;7105;43.616;1.434;2022-10-16T06:28:14;19.10;99.90
14061;DHT22;7105;43.616;1.434;2022-10-16T06:30:41;19.10;99.90
14061;DHT22;7105;43.616;1.434;2022-10-16T06:33:08;19.20;99.90
14061;DHT22;7105;43.616;1.434;2022-10-16T06:35:33;19.20;99.90
14061;DHT22;7105;43.616;1.434;2022-10-16T06:37:59;19.30;99.90
14061;DHT22;7105;43.616;1.434;2022-10-16T06:40:25;19.30;99.90
14061;DHT22;7105;43.616;1.434;2022-10-16T06:42:50;19.30;99.90
14061;DHT22;7105;43.616;1.434;2022-10-16T06:45:17;19.30;99.90
14061;DHT22;7105;43.616;1.434;2022-10-16T06:47:43;19.30;99.90
14061;DHT22;7105;43.616;1.434;2022-10-16T06:50:08;19.30;99.90
14061;DHT22;7105;43.616;1.434;2022-10-16T06:52:34;19.30;99.90
14061;DHT22;7105;43.616;1.434;2022-10-16T06:55:00;19.40;99.90
14061;DHT22;7105;43.616;1.434;2022-10-16T06:57:26;19.40;99.90
14061;DHT22;7105;43.616;1.434;2022-10-16T06:59:51;19.40;99.90
14061;DHT22;7105;43.616;1.434;2022-10-16T07:02:17;19.40;99.90
14061;DHT22;7105;43.616;1.434;2022-10-16T07:04:43;19.50;99.90
14061;DHT22;7105;43.616;1.434;2022-10-16T07:07:08;19.50;99.90
14061;DHT22;7105;43.616;1.434;2022-10-16T07:09:34;19.60;99.90
14061;DHT22;7105;43.616;1.434;2022-10-16T07:11:59;19.60;99.90
14061;DHT22;7105;43.616;1.434;2022-10-16T07:14:25;19.60;99.90
14061;DHT22;7105;43.616;1.434;2022-10-16T07:16:51;19.60;99.90
14061;DHT22;7105;43.616;1.434;2022-10-16T07:19:16;19.70;99.90
14061;DHT22;7105;43.616;1.434;2022-10-16T07:21:43;19.70;99.90
14061;DHT22;7105;43.616;1.434;2022-10-16T07:24:15;19.80;99.90
14061;DHT22;7105;43.616;1.434;2022-10-16T07:26:42;19.90;99.90
14061;DHT22;7105;43.616;1.434;2022-10-16T07:29:20;20.00;99.90
14061;DHT22;7105;43.616;1.434;2022-10-16T07:31:47;20.20;99.90
14061;DHT22;7105;43.616;1.434;2022-10-16T07:34:15;20.40;99.90
14061;DHT22;7105;43.616;1.434;2022-10-16T07:36:41;20.50;99.90
14061;DHT22;7105;43.616;1.434;2022-10-16T07:39:07;20.80;99.90
14061;DHT22;7105;43.616;1.434;2022-10-16T07:41:33;21.00;99.90
14061;DHT22;7105;43.616;1.434;2022-10-16T07:44:02;22.00;99.90
14061;DHT22;7105;43.616;1.434;2022-10-16T07:46:29;21.90;99.90
14061;DHT22;7105;43.616;1.434;2022-10-16T07:48:55;21.50;99.90
14061;DHT22;7105;43.616;1.434;2022-10-16T07:51:24;21.40;99.90
14061;DHT22;7105;43.616;1.434;2022-10-16T07:53:51;22.80;99.90
14061;DHT22;7105;43.616;1.434;2022-10-16T07:56:18;24.80;99.90
14061;DHT22;7105;43.616;1.434;2022-10-16T07:58:44;25.30;99.90
14061;DHT22;7105;43.616;1.434;2022-10-16T08:01:13;26.90;99.90
14061;DHT22;7105;43.616;1.434;2022-10-16T08:03:42;27.50;99.90
14061;DHT22;7105;43.616;1.434;2022-10-16T08:06:08;26.30;99.90
14061;DHT22;7105;43.616;1.434;2022-10-16T08:08:33;26.50;99.90
14061;DHT22;7105;43.616;1.434;2022-10-16T08:10:59;26.60;99.90
14061;DHT22;7105;43.616;1.434;2022-10-16T08:13:25;25.00;99.90
14061;DHT22;7105;43.616;1.434;2022-10-16T08:15:53;24.90;99.90
14061;DHT22;7105;43.616;1.434;2022-10-16T08:18:19;26.00;99.90
14061;DHT22;7105;43.616;1.434;2022-10-16T08:20:45;27.20;99.90
14061;DHT22;7105;43.616;1.434;2022-10-16T08:23:13;29.20;99.90
14061;DHT22;7105;43.616;1.434;2022-10-16T08:25:40;28.10;99.90
14061;DHT22;7105;43.616;1.434;2022-10-16T08:28:09;26.60;99.90
14061;DHT22;7105;43.616;1.434;2022-10-16T08:30:35;28.60;99.90
14061;DHT22;7105;43.616;1.434;2022-10-16T08:33:01;27.60;99.90
14061;DHT22;7105;43.616;1.434;2022-10-16T08:35:27;27.80;99.90
14061;DHT22;7105;43.616;1.434;2022-10-16T08:37:53;27.90;99.90
14061;DHT22;7105;43.616;1.434;2022-10-16T08:40:29;27.60;99.90
14061;DHT22;7105;43.616;1.434;2022-10-16T08:50:43;28.80;99.90
14061;DHT22;7105;43.616;1.434;2022-10-16T08:53:16;28.50;99.90
14061;DHT22;7105;43.616;1.434;2022-10-16T08:55:50;28.00;99.90
14061;DHT22;7105;43.616;1.434;2022-10-16T09:00:46;28.40;99.90
14061;DHT22;7105;43.616;1.434;2022-10-16T09:03:33;28.40;99.90
14061;DHT22;7105;43.616;1.434;2022-10-16T09:14:03;23.90;99.90
14061;DHT22;7105;43.616;1.434;2022-10-16T09:16:39;23.80;99.90
14061;DHT22;7105;43.616;1.434;2022-10-16T09:19:24;23.30;99.90
14061;DHT22;7105;43.616;1.434;2022-10-16T09:21:51;23.40;99.90
14061;DHT22;7105;43.616;1.434;2022-10-16T09:24:21;23.50;99.90
14061;DHT22;7105;43.616;1.434;2022-10-16T09:26:47;23.50;99.90
14061;DHT22;7105;43.616;1.434;2022-10-16T09:29:18;23.40;99.90
14061;DHT22;7105;43.616;1.434;2022-10-16T09:31:48;23.20;99.90
14061;DHT22;7105;43.616;1.434;2022-10-16T09:36:46;23.20;99.90
14061;DHT22;7105;43.616;1.434;2022-10-16T09:39:12;23.30;99.90
14061;DHT22;7105;43.616;1.434;2022-10-16T09:41:43;23.20;99.90
14061;DHT22;7105;43.616;1.434;2022-10-16T09:44:26;23.30;99.90
14061;DHT22;7105;43.616;1.434;2022-10-16T09:47:04;23.40;99.90
14061;DHT22;7105;43.616;1.434;2022-10-16T09:49:30;23.30;99.90
14061;DHT22;7105;43.616;1.434;2022-10-16T09:52:09;23.50;99.90
14061;DHT22;7105;43.616;1.434;2022-10-16T09:54:36;23.40;99.90
14061;DHT22;7105;43.616;1.434;2022-10-16T09:57:06;23.40;99.90
14061;DHT22;7105;43.616;1.434;2022-10-16T09:59:33;23.30;99.90
14061;DHT22;7105;43.616;1.434;2022-10-16T10:02:03;23.20;99.90
14061;DHT22;7105;43.616;1.434;2022-10-16T10:04:41;23.30;99.90
14061;DHT22;7105;43.616;1.434;2022-10-16T10:07:26;23.40;99.90
14061;DHT22;7105;43.616;1.434;2022-10-16T10:09:53;23.60;99.90
14061;DHT22;7105;43.616;1.434;2022-10-16T10:12:23;23.60;99.90
14061;DHT22;7105;43.616;1.434;2022-10-16T10:14:52;23.60;99.90
14061;DHT22;7105;43.616;1.434;2022-10-16T10:17:20;23.60;99.90
14061;DHT22;7105;43.616;1.434;2022-10-16T10:22:40;23.50;99.90
14061;DHT22;7105;43.616;1.434;2022-10-16T10:35:51;23.90;99.90
14061;DHT22;7105;43.616;1.434;2022-10-16T10:41:27;23.90;99.90
14061;DHT22;7105;43.616;1.434;2022-10-16T10:46:41;24.00;99.90
14061;DHT22;7105;43.616;1.434;2022-10-16T10:49:24;24.00;99.90
14061;DHT22;7105;43.616;1.434;2022-10-16T10:52:07;24.00;99.90
14061;DHT22;7105;43.616;1.434;2022-10-16T11:01:16;24.00;99.90
14061;DHT22;7105;43.616;1.434;2022-10-16T11:06:57;24.20;99.90
14061;DHT22;7105;43.616;1.434;2022-10-16T11:09:30;24.10;99.90
14061;DHT22;7105;43.616;1.434;2022-10-16T11:12:17;24.20;99.90
14061;DHT22;7105;43.616;1.434;2022-10-16T11:15:07;24.30;99.90
14061;DHT22;7105;43.616;1.434;2022-10-16T11:17:55;24.30;99.90
14061;DHT22;7105;43.616;1.434;2022-10-16T11:20:32;24.30;99.90
14061;DHT22;7105;43.616;1.434;2022-10-16T11:23:23;24.20;99.90
14061;DHT22;7105;43.616;1.434;2022-10-16T11:25:51;24.30;99.90
14061;DHT22;7105;43.616;1.434;2022-10-16T11:31:23;24.20;99.90
14061;DHT22;7105;43.616;1.434;2022-10-16T11:33:53;24.40;99.90
14061;DHT22;7105;43.616;1.434;2022-10-16T11:49:32;24.40;99.90
14061;DHT22;7105;43.616;1.434;2022-10-16T11:52:22;24.50;99.90
14061;DHT22;7105;43.616;1.434;2022-10-16T11:57:27;24.50;99.90
14061;DHT22;7105;43.616;1.434;2022-10-16T12:00:38;24.50;99.90
14061;DHT22;7105;43.616;1.434;2022-10-16T12:08:13;24.50;99.90
14061;DHT22;7105;43.616;1.434;2022-10-16T12:10:41;24.60;99.90
14061;DHT22;7105;43.616;1.434;2022-10-16T12:15:52;24.70;99.90
14061;DHT22;7105;43.616;1.434;2022-10-16T12:18:29;24.70;99.90
14061;DHT22;7105;43.616;1.434;2022-10-16T12:20:56;24.70;99.90
14061;DHT22;7105;43.616;1.434;2022-10-16T12:23:29;24.90;99.90
14061;DHT22;7105;43.616;1.434;2022-10-16T12:25:58;24.90;99.90
14061;DHT22;7105;43.616;1.434;2022-10-16T12:28:34;24.90;99.90
14061;DHT22;7105;43.616;1.434;2022-10-16T12:31:03;25.00;99.90
14061;DHT22;7105;43.616;1.434;2022-10-16T12:33:41;24.90;99.90
14061;DHT22;7105;43.616;1.434;2022-10-16T12:36:26;25.00;99.90
14061;DHT22;7105;43.616;1.434;2022-10-16T12:38:53;25.10;99.90
14061;DHT22;7105;43.616;1.434;2022-10-16T12:41:33;25.10;99.90
14061;DHT22;7105;43.616;1.434;2022-10-16T12:44:20;25.10;99.90
14061;DHT22;7105;43.616;1.434;2022-10-16T12:46:47;25.30;99.90
14061;DHT22;7105;43.616;1.434;2022-10-16T12:51:39;25.30;99.90
14061;DHT22;7105;43.616;1.434;2022-10-16T12:56:41;25.30;99.90
14061;DHT22;7105;43.616;1.434;2022-10-16T13:08:05;25.20;99.90
14061;DHT22;7105;43.616;1.434;2022-10-16T13:13:34;25.20;99.90
14061;DHT22;7105;43.616;1.434;2022-10-16T13:28:11;25.30;99.90
14061;DHT22;7105;43.616;1.434;2022-10-16T13:33:12;25.10;99.90
14061;DHT22;7105;43.616;1.434;2022-10-16T13:35:48;25.30;99.90
14061;DHT22;7105;43.616;1.434;2022-10-16T13:38:17;25.00;99.90
14061;DHT22;7105;43.616;1.434;2022-10-16T13:43:33;25.10;99.90
14061;DHT22;7105;43.616;1.434;2022-10-16T13:46:02;25.20;99.90
14061;DHT22;7105;43.616;1.434;2022-10-16T13:48:29;25.30;99.90
14061;DHT22;7105;43.616;1.434;2022-10-16T13:53:25;25.00;99.90
14061;DHT22;7105;43.616;1.434;2022-10-16T13:55:50;25.10;99.90
14061;DHT22;7105;43.616;1.434;2022-10-16T13:58:16;25.00;99.90
14061;DHT22;7105;43.616;1.434;2022-10-16T14:01:01;25.00;99.90
14061;DHT22;7105;43.616;1.434;2022-10-16T14:03:28;25.10;99.90
14061;DHT22;7105;43.616;1.434;2022-10-16T14:05:58;25.20;99.90
14061;DHT22;7105;43.616;1.434;2022-10-16T14:08:25;25.30;99.90
14061;DHT22;7105;43.616;1.434;2022-10-16T14:10:57;25.30;99.90
14061;DHT22;7105;43.616;1.434;2022-10-16T14:13:37;25.20;99.90
14061;DHT22;7105;43.616;1.434;2022-10-16T14:16:15;25.20;99.90
14061;DHT22;7105;43.616;1.434;2022-10-16T14:18:46;25.20;99.90
14061;DHT22;7105;43.616;1.434;2022-10-16T14:21:16;25.20;99.90
14061;DHT22;7105;43.616;1.434;2022-10-16T14:23:42;25.20;99.90
14061;DHT22;7105;43.616;1.434;2022-10-16T14:28:35;25.20;99.90
14061;DHT22;7105;43.616;1.434;2022-10-16T14:31:13;25.30;99.90
14061;DHT22;7105;43.616;1.434;2022-10-16T14:33:45;25.30;99.90
14061;DHT22;7105;43.616;1.434;2022-10-16T14:36:11;24.80;99.90
14061;DHT22;7105;43.616;1.434;2022-10-16T14:38:43;24.70;99.90
14061;DHT22;7105;43.616;1.434;2022-10-16T14:41:13;24.70;99.90
14061;DHT22;7105;43.616;1.434;2022-10-16T14:43:40;24.60;99.90
14061;DHT22;7105;43.616;1.434;2022-10-16T14:46:20;24.50;99.90
14061;DHT22;7105;43.616;1.434;2022-10-16T14:48:50;24.40;99.90
14061;DHT22;7105;43.616;1.434;2022-10-16T14:51:17;24.30;99.90
14061;DHT22;7105;43.616;1.434;2022-10-16T14:53:43;24.30;99.90
14061;DHT22;7105;43.616;1.434;2022-10-16T14:56:15;24.30;99.90
14061;DHT22;7105;43.616;1.434;2022-10-16T14:58:41;24.30;99.90
14061;DHT22;7105;43.616;1.434;2022-10-16T15:01:09;24.30;99.90
14061;DHT22;7105;43.616;1.434;2022-10-16T15:03:36;24.30;99.90
14061;DHT22;7105;43.616;1.434;2022-10-16T15:06:02;24.30;99.90
14061;DHT22;7105;43.616;1.434;2022-10-16T15:08:28;24.30;99.90
14061;DHT22;7105;43.616;1.434;2022-10-16T15:10:54;24.40;99.90
14061;DHT22;7105;43.616;1.434;2022-10-16T15:13:20;24.60;99.90
14061;DHT22;7105;43.616;1.434;2022-10-16T15:15:46;24.60;99.90
14061;DHT22;7105;43.616;1.434;2022-10-16T15:18:14;24.60;99.90
14061;DHT22;7105;43.616;1.434;2022-10-16T15:20:47;24.60;99.90
14061;DHT22;7105;43.616;1.434;2022-10-16T15:23:15;24.60;99.90
14061;DHT22;7105;43.616;1.434;2022-10-16T15:25:41;24.60;99.90
14061;DHT22;7105;43.616;1.434;2022-10-16T15:28:08;24.70;99.90
14061;DHT22;7105;43.616;1.434;2022-10-16T15:30:35;24.60;99.90
14061;DHT22;7105;43.616;1.434;2022-10-16T15:33:02;24.60;99.90
14061;DHT22;7105;43.616;1.434;2022-10-16T15:35:28;24.50;99.90
14061;DHT22;7105;43.616;1.434;2022-10-16T15:37:54;24.50;99.90
14061;DHT22;7105;43.616;1.434;2022-10-16T15:40:20;24.50;99.90
14061;DHT22;7105;43.616;1.434;2022-10-16T15:42:47;24.60;99.90
14061;DHT22;7105;43.616;1.434;2022-10-16T15:45:13;24.70;99.90
14061;DHT22;7105;43.616;1.434;2022-10-16T15:47:40;24.60;99.90
14061;DHT22;7105;43.616;1.434;2022-10-16T15:50:06;24.70;99.90
14061;DHT22;7105;43.616;1.434;2022-10-16T15:52:32;24.60;99.90
14061;DHT22;7105;43.616;1.434;2022-10-16T15:54:58;24.60;99.90
14061;DHT22;7105;43.616;1.434;2022-10-16T15:57:24;24.60;99.90
14061;DHT22;7105;43.616;1.434;2022-10-16T15:59:50;24.60;99.90
14061;DHT22;7105;43.616;1.434;2022-10-16T16:02:16;24.40;99.90
14061;DHT22;7105;43.616;1.434;2022-10-16T16:04:42;24.40;99.90
14061;DHT22;7105;43.616;1.434;2022-10-16T16:07:07;24.30;99.90
14061;DHT22;7105;43.616;1.434;2022-10-16T16:09:33;24.30;99.90
14061;DHT22;7105;43.616;1.434;2022-10-16T16:11:59;24.20;99.90
14061;DHT22;7105;43.616;1.434;2022-10-16T16:14:27;24.30;99.90
14061;DHT22;7105;43.616;1.434;2022-10-16T16:16:56;24.10;99.90
14061;DHT22;7105;43.616;1.434;2022-10-16T16:19:22;24.00;99.90
14061;DHT22;7105;43.616;1.434;2022-10-16T16:21:48;24.00;99.90
14061;DHT22;7105;43.616;1.434;2022-10-16T16:24:14;24.00;99.90
14061;DHT22;7105;43.616;1.434;2022-10-16T16:26:40;23.90;99.90
14061;DHT22;7105;43.616;1.434;2022-10-16T16:29:11;23.80;99.90
14061;DHT22;7105;43.616;1.434;2022-10-16T16:31:38;23.80;99.90
14061;DHT22;7105;43.616;1.434;2022-10-16T16:34:04;23.80;99.90
14061;DHT22;7105;43.616;1.434;2022-10-16T16:36:30;23.70;99.90
14061;DHT22;7105;43.616;1.434;2022-10-16T16:38:57;23.60;99.90
14061;DHT22;7105;43.616;1.434;2022-10-16T16:41:25;23.60;99.90
14061;DHT22;7105;43.616;1.434;2022-10-16T16:43:52;23.40;99.90
14061;DHT22;7105;43.616;1.434;2022-10-16T16:46:19;23.40;99.90
14061;DHT22;7105;43.616;1.434;2022-10-16T16:48:45;23.30;99.90
14061;DHT22;7105;43.616;1.434;2022-10-16T16:51:16;23.30;99.90
14061;DHT22;7105;43.616;1.434;2022-10-16T16:53:50;23.20;99.90
14061;DHT22;7105;43.616;1.434;2022-10-16T16:56:17;23.10;99.90
14061;DHT22;7105;43.616;1.434;2022-10-16T16:58:48;23.10;99.90
14061;DHT22;7105;43.616;1.434;2022-10-16T17:01:14;23.00;99.90
14061;DHT22;7105;43.616;1.434;2022-10-16T17:03:42;23.00;99.90
14061;DHT22;7105;43.616;1.434;2022-10-16T17:06:13;22.90;99.90
14061;DHT22;7105;43.616;1.434;2022-10-16T17:08:40;22.90;99.90
14061;DHT22;7105;43.616;1.434;2022-10-16T17:11:06;22.80;99.90
14061;DHT22;7105;43.616;1.434;2022-10-16T17:13:34;22.70;99.90
14061;DHT22;7105;43.616;1.434;2022-10-16T17:16:04;22.70;99.90
14061;DHT22;7105;43.616;1.434;2022-10-16T17:18:31;22.60;99.90
14061;DHT22;7105;43.616;1.434;2022-10-16T17:21:02;22.60;99.90
14061;DHT22;7105;43.616;1.434;2022-10-16T17:23:29;22.60;99.90
14061;DHT22;7105;43.616;1.434;2022-10-16T17:25:55;22.60;99.90
14061;DHT22;7105;43.616;1.434;2022-10-16T17:28:20;22.50;99.90
14061;DHT22;7105;43.616;1.434;2022-10-16T17:30:46;22.50;99.90
14061;DHT22;7105;43.616;1.434;2022-10-16T17:33:12;22.50;99.90
14061;DHT22;7105;43.616;1.434;2022-10-16T17:35:40;22.40;99.90
14061;DHT22;7105;43.616;1.434;2022-10-16T17:38:06;22.40;99.90
14061;DHT22;7105;43.616;1.434;2022-10-16T17:40:33;22.40;99.90
14061;DHT22;7105;43.616;1.434;2022-10-16T17:42:59;22.30;99.90
14061;DHT22;7105;43.616;1.434;2022-10-16T17:45:24;22.30;99.90
14061;DHT22;7105;43.616;1.434;2022-10-16T17:47:51;22.30;99.90
14061;DHT22;7105;43.616;1.434;2022-10-16T17:50:17;22.20;99.90
14061;DHT22;7105;43.616;1.434;2022-10-16T17:52:42;22.30;99.90
14061;DHT22;7105;43.616;1.434;2022-10-16T17:55:08;22.20;99.90
14061;DHT22;7105;43.616;1.434;2022-10-16T17:57:34;22.20;99.90
14061;DHT22;7105;43.616;1.434;2022-10-16T17:59:59;22.20;99.90
14061;DHT22;7105;43.616;1.434;2022-10-16T18:02:27;22.20;99.90
14061;DHT22;7105;43.616;1.434;2022-10-16T18:04:53;22.20;99.90
14061;DHT22;7105;43.616;1.434;2022-10-16T18:07:20;22.10;99.90
14061;DHT22;7105;43.616;1.434;2022-10-16T18:09:46;22.10;99.90
14061;DHT22;7105;43.616;1.434;2022-10-16T18:12:12;22.10;99.90
14061;DHT22;7105;43.616;1.434;2022-10-16T18:14:39;22.00;99.90